Time;durP1;ratioP1;P1;durP2;ratioP2;P2;SDS_P1;SDS_P2;PMS_P1;PMS_P2;Temp;Humidity;BMP_temperature;BMP_pressure;BME280_temperature;BME280_humidity;BME280_pressure;Samples;Min_cycle;Max_cycle;Signal;HPM_P1;HPM_P2
2023/09/11 00:00:42;;;;;;;;;;;;;;;33.34;30.41;98298.25;5073622;28;19920;-87
2023/09/11 00:03:08;;;;;;;;;;;;;;;33.43;30.44;98289.59;5069913;28;19919;-87
2023/09/11 00:05:34;;;;;;;;;;;;;;;33.38;30.17;98283.81;5093014;28;19920;-87
2023/09/11 00:08:00;;;;;;;;;;;;;;;33.23;29.63;98281.00;5094953;28;19920;-87
2023/09/11 00:10:26;;;;;;;;;;;;;;;33.23;29.95;98281.00;5093116;28;19927;-88
2023/09/11 00:12:52;;;;;;;;;;;;;;;33.15;30.45;98279.81;5092191;28;19928;-87
2023/09/11 00:15:18;;;;;;;;;;;;;;;33.12;30.39;98277.16;5090143;28;19959;-87
2023/09/11 00:17:44;;;;;;;;;;;;;;;33.27;30.01;98277.94;5093660;28;20538;-87
2023/09/11 00:20:10;;;;;;;;;;;;;;;33.26;30.46;98277.16;5074386;28;20398;-87
2023/09/11 00:22:37;;;;;;;;;;;;;;;33.23;30.40;98280.22;5092847;28;19927;-87
2023/09/11 00:25:03;;;;;;;;;;;;;;;33.36;29.88;98272.13;5073560;28;20363;-88
2023/09/11 00:27:29;;;;;;;;;;;;;;;33.23;30.48;98272.47;5073332;28;19920;-87
2023/09/11 00:29:57;;;;;;;;;;;;;;;33.10;29.58;98269.13;5091397;28;20252;-87
2023/09/11 00:32:23;;;;;;;;;;;;;;;32.78;30.15;98278.63;5091089;28;19928;-87
2023/09/11 00:34:49;;;;;;;;;;;;;;;32.86;29.91;98267.63;5090411;28;19934;-87
2023/09/11 00:37:15;;;;;;;;;;;;;;;33.08;30.48;98268.03;5090688;28;19925;-87
2023/09/11 00:39:41;;;;;;;;;;;;;;;33.07;30.42;98258.72;5092371;28;19945;-87
2023/09/11 00:42:07;;;;;;;;;;;;;;;33.00;30.03;98258.31;5091898;28;20019;-87
2023/09/11 00:44:33;;;;;;;;;;;;;;;32.98;30.82;98264.47;5089399;28;19970;-87
2023/09/11 00:46:59;;;;;;;;;;;;;;;32.81;31.02;98260.56;5089546;28;19927;-87
2023/09/11 00:49:25;;;;;;;;;;;;;;;32.98;30.44;98261.63;5090730;28;19920;-87
2023/09/11 00:51:52;;;;;;;;;;;;;;;32.85;31.07;98260.38;5090856;28;19924;-87
2023/09/11 00:54:21;;;;;;;;;;;;;;;32.70;31.43;98257.50;5091361;28;19927;-87
2023/09/11 00:56:47;;;;;;;;;;;;;;;32.72;30.89;98260.66;5084728;28;19927;-86
2023/09/11 00:59:14;;;;;;;;;;;;;;;32.90;30.70;98256.84;5086402;28;20383;-86
2023/09/11 01:01:41;;;;;;;;;;;;;;;33.03;31.87;98251.66;5091066;28;19924;-86
2023/09/11 01:04:07;;;;;;;;;;;;;;;33.04;30.95;98254.03;5091537;28;19946;-87
2023/09/11 01:06:33;;;;;;;;;;;;;;;33.13;30.17;98253.91;5089429;28;19939;-86
2023/09/11 01:09:00;;;;;;;;;;;;;;;33.22;30.36;98250.16;5092690;28;19924;-86
2023/09/11 01:11:26;;;;;;;;;;;;;;;33.27;30.72;98249.47;5091096;28;20395;-86
2023/09/11 01:13:53;;;;;;;;;;;;;;;33.04;30.83;98250.41;5091064;28;19947;-86
2023/09/11 01:16:19;;;;;;;;;;;;;;;32.99;31.12;98242.50;5095343;28;19963;-87
2023/09/11 01:19:00;;;;;;;;;;;;;;;33.18;30.62;98244.69;5094299;28;20394;-87
2023/09/11 01:21:39;;;;;;;;;;;;;;;33.15;31.03;98248.50;5081483;28;19920;-87
2023/09/11 01:24:20;;;;;;;;;;;;;;;33.06;30.25;98248.63;5072385;28;20056;-87
2023/09/11 01:26:46;;;;;;;;;;;;;;;33.10;29.99;98252.06;5071999;28;20086;-87
2023/09/11 01:29:15;;;;;;;;;;;;;;;33.14;30.36;98251.88;5069788;28;20332;-87
2023/09/11 01:31:42;;;;;;;;;;;;;;;33.24;29.83;98242.72;5082242;28;19916;-87
2023/09/11 01:34:08;;;;;;;;;;;;;;;33.14;29.58;98238.41;5073273;28;19928;-87
2023/09/11 01:36:34;;;;;;;;;;;;;;;33.09;29.69;98239.13;5073728;28;19917;-87
2023/09/11 01:39:00;;;;;;;;;;;;;;;32.95;29.93;98236.25;5073185;28;19919;-86
2023/09/11 01:41:30;;;;;;;;;;;;;;;33.03;29.59;98237.44;5073715;28;19920;-86
2023/09/11 01:43:58;;;;;;;;;;;;;;;33.16;29.02;98229.38;5069174;28;19970;-86
2023/09/11 01:46:24;;;;;;;;;;;;;;;33.16;29.83;98221.63;5052652;28;19916;-86
2023/09/11 01:48:51;;;;;;;;;;;;;;;33.18;29.43;98233.31;5088752;28;20433;-86
2023/09/11 01:51:18;;;;;;;;;;;;;;;32.78;29.58;98224.56;5093665;28;19916;-86
2023/09/11 01:53:44;;;;;;;;;;;;;;;32.66;30.55;98228.50;5093258;28;19930;-86
2023/09/11 01:56:11;;;;;;;;;;;;;;;32.68;30.34;98220.25;5093708;28;19916;-86
2023/09/11 01:58:37;;;;;;;;;;;;;;;32.69;30.63;98219.78;5086787;28;19917;-86
2023/09/11 02:01:03;;;;;;;;;;;;;;;32.72;30.39;98223.69;5068079;28;20020;-86
2023/09/11 02:03:29;;;;;;;;;;;;;;;32.90;29.31;98217.81;5087690;28;19925;-86
2023/09/11 02:05:55;;;;;;;;;;;;;;;32.97;29.46;98220.25;5078303;28;20368;-86
2023/09/11 02:08:21;;;;;;;;;;;;;;;33.06;29.47;98217.31;5077149;28;19920;-85
2023/09/11 02:10:47;;;;;;;;;;;;;;;33.01;29.93;98217.19;5080435;28;19920;-85
2023/09/11 02:13:13;;;;;;;;;;;;;;;32.93;29.73;98216.81;5072968;28;20372;-85
2023/09/11 02:15:39;;;;;;;;;;;;;;;32.95;30.60;98214.28;5075261;28;20003;-86
2023/09/11 02:18:05;;;;;;;;;;;;;;;32.96;30.97;98215.03;5075958;28;20355;-85
2023/09/11 02:20:31;;;;;;;;;;;;;;;32.94;30.83;98215.53;5081037;28;19956;-86
2023/09/11 02:22:57;;;;;;;;;;;;;;;32.75;30.79;98217.81;5078046;28;20279;-85
2023/09/11 02:25:23;;;;;;;;;;;;;;;32.88;29.80;98214.69;5117724;28;19923;-86
2023/09/11 02:27:49;;;;;;;;;;;;;;;32.80;30.64;98213.47;5096351;28;19974;-86
2023/09/11 02:30:16;;;;;;;;;;;;;;;32.80;30.69;98218.38;5095162;28;20296;-85
2023/09/11 02:32:42;;;;;;;;;;;;;;;32.98;29.81;98218.97;5078638;28;19935;-86
2023/09/11 02:35:08;;;;;;;;;;;;;;;33.05;30.34;98226.38;5094137;28;19928;-85
2023/09/11 02:37:34;;;;;;;;;;;;;;;32.83;29.60;98221.03;5092317;28;19920;-85
2023/09/11 02:40:00;;;;;;;;;;;;;;;32.84;29.55;98219.00;5089689;28;19924;-85
2023/09/11 02:42:26;;;;;;;;;;;;;;;32.88;29.24;98225.25;5085402;28;19927;-85
2023/09/11 02:44:52;;;;;;;;;;;;;;;32.89;29.19;98224.75;5095462;28;19927;-85
2023/09/11 02:47:18;;;;;;;;;;;;;;;32.74;28.75;98218.31;5095909;28;20387;-86
2023/09/11 02:49:44;;;;;;;;;;;;;;;32.71;29.29;98222.13;5102077;28;19920;-86
2023/09/11 02:52:10;;;;;;;;;;;;;;;32.76;29.19;98224.28;5098881;28;19923;-85
2023/09/11 02:54:36;;;;;;;;;;;;;;;32.73;29.29;98213.88;5095502;28;19943;-86
2023/09/11 02:57:03;;;;;;;;;;;;;;;32.38;29.70;98210.09;5095883;28;20355;-86
2023/09/11 02:59:29;;;;;;;;;;;;;;;32.20;29.46;98204.59;5081202;28;19940;-86
2023/09/11 03:01:55;;;;;;;;;;;;;;;32.06;29.94;98215.44;5096251;28;20011;-85
2023/09/11 03:04:21;;;;;;;;;;;;;;;32.14;29.93;98223.59;5096387;28;19993;-86
2023/09/11 03:06:47;;;;;;;;;;;;;;;32.19;29.98;98220.06;5095713;28;19921;-86
2023/09/11 03:09:13;;;;;;;;;;;;;;;32.20;29.56;98213.09;5087283;28;19927;-85
2023/09/11 03:11:39;;;;;;;;;;;;;;;32.34;30.38;98210.31;5076834;28;19924;-86
2023/09/11 03:14:05;;;;;;;;;;;;;;;32.55;29.91;98217.72;5095293;28;19978;-86
2023/09/11 03:16:31;;;;;;;;;;;;;;;32.73;29.91;98220.34;5095804;28;19920;-86
2023/09/11 03:18:57;;;;;;;;;;;;;;;32.74;29.18;98221.91;5107336;28;19926;-86
2023/09/11 03:21:23;;;;;;;;;;;;;;;32.63;29.21;98215.25;5095416;28;20010;-86
2023/09/11 03:23:49;;;;;;;;;;;;;;;32.65;29.39;98213.47;5095858;28;19982;-85
2023/09/11 03:26:15;;;;;;;;;;;;;;;32.67;29.82;98219.47;5090653;28;20283;-85
2023/09/11 03:28:44;;;;;;;;;;;;;;;32.70;29.10;98224.16;5092064;28;19981;-84
2023/09/11 03:31:10;;;;;;;;;;;;;;;32.31;29.32;98216.94;5095846;28;19927;-85
2023/09/11 03:33:36;;;;;;;;;;;;;;;32.42;30.17;98222.06;5095174;28;19920;-85
2023/09/11 03:36:03;;;;;;;;;;;;;;;32.19;30.31;98223.69;5095344;28;20279;-88
2023/09/11 03:38:29;;;;;;;;;;;;;;;32.32;30.07;98227.06;5095946;28;20001;-88
2023/09/11 03:40:56;;;;;;;;;;;;;;;32.28;30.56;98220.75;5095824;28;19924;-87
2023/09/11 03:43:22;;;;;;;;;;;;;;;32.21;29.90;98203.31;5094167;28;19928;-88
2023/09/11 03:45:48;;;;;;;;;;;;;;;32.27;30.30;98224.09;5076797;28;20006;-88
2023/09/11 03:48:14;;;;;;;;;;;;;;;32.38;30.23;98213.72;5092935;28;20455;-87
2023/09/11 03:50:40;;;;;;;;;;;;;;;32.47;29.82;98216.47;5077275;28;19920;-88
2023/09/11 03:53:06;;;;;;;;;;;;;;;32.65;29.66;98224.09;5092285;28;20292;-85
2023/09/11 03:55:32;;;;;;;;;;;;;;;32.74;29.45;98219.06;5090039;28;19920;-85
2023/09/11 03:57:58;;;;;;;;;;;;;;;32.61;29.21;98206.41;5089667;28;19916;-84
2023/09/11 04:00:24;;;;;;;;;;;;;;;32.66;28.51;98214.28;5089241;28;20280;-85
2023/09/11 04:02:50;;;;;;;;;;;;;;;32.70;28.18;98209.16;5086457;28;19921;-85
2023/09/11 04:05:16;;;;;;;;;;;;;;;32.42;28.90;98205.78;5090866;28;20033;-86
2023/09/11 04:07:42;;;;;;;;;;;;;;;32.23;28.95;98203.63;5085809;28;19920;-85
2023/09/11 04:10:08;;;;;;;;;;;;;;;32.19;28.84;98209.47;5090260;28;19931;-83
2023/09/11 04:12:34;;;;;;;;;;;;;;;32.19;28.88;98200.16;5088436;28;19916;-84
2023/09/11 04:15:00;;;;;;;;;;;;;;;32.19;29.10;98203.00;5091977;28;19924;-84
2023/09/11 04:17:26;;;;;;;;;;;;;;;32.30;29.39;98191.88;5092141;28;19961;-84
2023/09/11 04:19:52;;;;;;;;;;;;;;;32.17;29.88;98202.72;5087358;28;20080;-84
2023/09/11 04:22:18;;;;;;;;;;;;;;;32.12;30.19;98198.50;5093452;28;19924;-84
2023/09/11 04:24:44;;;;;;;;;;;;;;;32.34;29.13;98204.63;5090579;28;19916;-84
2023/09/11 04:27:10;;;;;;;;;;;;;;;32.27;29.46;98205.00;5085916;28;19942;-84
2023/09/11 04:29:36;;;;;;;;;;;;;;;32.24;29.09;98196.66;5093332;28;20383;-84
2023/09/11 04:32:03;;;;;;;;;;;;;;;31.99;29.51;98198.75;5093260;28;19927;-84
2023/09/11 04:34:29;;;;;;;;;;;;;;;32.20;29.09;98198.91;5089413;28;19928;-84
2023/09/11 04:36:55;;;;;;;;;;;;;;;32.35;29.39;98197.66;5089772;28;20293;-83
2023/09/11 04:39:21;;;;;;;;;;;;;;;32.35;29.16;98199.72;5063988;28;19931;-84
2023/09/11 04:41:48;;;;;;;;;;;;;;;32.38;28.90;98188.16;5090290;28;19936;-83
2023/09/11 04:44:14;;;;;;;;;;;;;;;32.21;28.97;98186.28;5066955;28;19975;-83
2023/09/11 04:46:40;;;;;;;;;;;;;;;32.23;29.49;98195.09;5090319;28;19916;-83
2023/09/11 04:49:06;;;;;;;;;;;;;;;32.38;29.82;98193.84;5088126;28;20014;-83
2023/09/11 04:51:32;;;;;;;;;;;;;;;32.74;29.57;98190.63;5087195;28;19923;-84
2023/09/11 04:53:58;;;;;;;;;;;;;;;33.03;29.76;98194.75;5090798;28;19920;-84
2023/09/11 04:56:24;;;;;;;;;;;;;;;32.82;29.35;98193.06;5088108;28;19928;-84
2023/09/11 04:58:50;;;;;;;;;;;;;;;32.78;29.49;98198.97;5089589;28;19924;-85
2023/09/11 05:01:16;;;;;;;;;;;;;;;32.95;29.31;98199.25;5091496;28;20375;-84
2023/09/11 05:03:42;;;;;;;;;;;;;;;33.19;28.70;98200.72;5091224;28;19973;-85
2023/09/11 05:06:08;;;;;;;;;;;;;;;33.33;29.23;98196.25;5090977;28;19920;-85
2023/09/11 05:08:34;;;;;;;;;;;;;;;33.27;29.49;98201.09;5074664;28;19927;-85
2023/09/11 05:11:03;;;;;;;;;;;;;;;33.09;29.25;98193.59;5092502;28;19920;-84
2023/09/11 05:13:29;;;;;;;;;;;;;;;33.18;30.34;98195.53;5092296;28;19931;-85
2023/09/11 05:15:55;;;;;;;;;;;;;;;33.55;30.07;98184.44;5074442;28;19920;-84
2023/09/11 05:18:21;;;;;;;;;;;;;;;33.82;29.64;98196.19;5091965;28;19938;-84
2023/09/11 05:20:50;;;;;;;;;;;;;;;34.02;29.64;98192.56;5087760;28;20307;-85
2023/09/11 05:23:17;;;;;;;;;;;;;;;33.88;29.89;98187.75;5071546;28;20023;-84
2023/09/11 05:25:43;;;;;;;;;;;;;;;33.89;29.37;98192.94;5063200;28;20288;-85
2023/09/11 05:28:09;;;;;;;;;;;;;;;33.89;30.00;98192.94;5072604;28;20406;-84
2023/09/11 05:30:35;;;;;;;;;;;;;;;33.91;29.46;98189.59;5064281;28;19920;-85
2023/09/11 05:33:01;;;;;;;;;;;;;;;33.80;29.30;98186.59;5063005;28;19927;-84
2023/09/11 05:35:27;;;;;;;;;;;;;;;33.72;29.59;98191.94;5085871;28;20019;-84
2023/09/11 05:37:53;;;;;;;;;;;;;;;34.01;29.39;98191.00;5076416;28;19956;-84
2023/09/11 05:40:19;;;;;;;;;;;;;;;34.19;29.70;98192.81;5079978;28;19990;-84
2023/09/11 05:42:45;;;;;;;;;;;;;;;34.20;30.04;98189.44;5062167;28;19959;-84
2023/09/11 05:45:11;;;;;;;;;;;;;;;34.22;30.16;98198.28;5078767;28;20433;-84
2023/09/11 05:47:39;;;;;;;;;;;;;;;34.24;30.53;98190.00;5074345;28;19960;-84
2023/09/11 05:50:06;;;;;;;;;;;;;;;34.42;30.93;98191.75;5086097;28;20018;-84
2023/09/11 05:52:33;;;;;;;;;;;;;;;34.65;31.21;98188.66;5085432;28;19975;-84
2023/09/11 05:54:59;;;;;;;;;;;;;;;34.61;30.59;98190.19;5066901;28;20019;-84
2023/09/11 05:57:25;;;;;;;;;;;;;;;34.53;30.41;98189.84;5075317;28;20012;-84
2023/09/11 05:59:51;;;;;;;;;;;;;;;34.30;31.31;98185.16;5080985;28;19927;-84
2023/09/11 06:02:17;;;;;;;;;;;;;;;34.24;31.67;98194.94;5084072;28;20303;-84
2023/09/11 06:04:43;;;;;;;;;;;;;;;34.31;31.93;98185.94;5080421;28;20422;-84
2023/09/11 06:07:11;;;;;;;;;;;;;;;34.38;32.54;98188.34;5084699;28;19924;-84
2023/09/11 06:09:37;;;;;;;;;;;;;;;34.49;31.52;98183.56;5085052;28;20291;-84
2023/09/11 06:12:03;;;;;;;;;;;;;;;34.49;31.82;98177.84;5063778;28;20015;-84
2023/09/11 06:14:29;;;;;;;;;;;;;;;34.70;32.62;98182.19;5059632;28;19929;-84
2023/09/11 06:16:55;;;;;;;;;;;;;;;34.85;31.38;98181.28;5078401;28;20288;-85
2023/09/11 06:19:21;;;;;;;;;;;;;;;34.80;32.11;98182.81;5079087;28;19936;-85
2023/09/11 06:21:47;;;;;;;;;;;;;;;34.94;31.82;98176.19;5090244;28;20058;-84
2023/09/11 06:24:14;;;;;;;;;;;;;;;35.00;31.20;98176.25;5092510;28;20606;-85
2023/09/11 06:26:41;;;;;;;;;;;;;;;34.96;31.85;98178.53;5091353;28;19995;-85
2023/09/11 06:29:07;;;;;;;;;;;;;;;35.15;31.50;98179.78;5074555;28;19927;-85
2023/09/11 06:31:33;;;;;;;;;;;;;;;35.10;32.13;98180.50;5088608;28;19958;-85
2023/09/11 06:33:59;;;;;;;;;;;;;;;35.07;31.88;98172.94;5093608;28;19938;-85
2023/09/11 06:36:25;;;;;;;;;;;;;;;34.86;31.52;98180.00;5091362;28;19920;-85
2023/09/11 06:38:52;;;;;;;;;;;;;;;34.71;32.20;98186.63;5091886;28;19922;-85
2023/09/11 06:41:18;;;;;;;;;;;;;;;35.03;31.94;98183.81;5090477;28;20406;-85
2023/09/11 06:43:45;;;;;;;;;;;;;;;35.21;31.87;98186.28;5092430;28;19924;-85
2023/09/11 06:46:11;;;;;;;;;;;;;;;35.59;31.67;98190.72;5094538;28;19920;-85
2023/09/11 06:48:38;;;;;;;;;;;;;;;35.66;32.06;98185.28;5094094;28;19920;-85
2023/09/11 06:51:04;;;;;;;;;;;;;;;35.88;30.51;98190.34;5094766;28;20406;-86
2023/09/11 06:53:30;;;;;;;;;;;;;;;35.82;30.69;98190.31;5094541;28;20023;-86
2023/09/11 06:55:56;;;;;;;;;;;;;;;35.77;31.44;98191.06;5094889;28;19968;-86
2023/09/11 06:58:22;;;;;;;;;;;;;;;35.86;31.29;98182.28;5076618;28;19991;-86
2023/09/11 07:00:48;;;;;;;;;;;;;;;36.37;30.33;98177.53;5091814;28;19931;-85
2023/09/11 07:03:14;;;;;;;;;;;;;;;36.59;29.84;98174.75;5076366;28;19926;-85
2023/09/11 07:05:40;;;;;;;;;;;;;;;36.29;30.52;98179.34;5093460;28;19924;-85
2023/09/11 07:08:06;;;;;;;;;;;;;;;36.32;30.44;98181.16;5093737;28;20376;-85
2023/09/11 07:10:32;;;;;;;;;;;;;;;35.86;30.04;98179.44;5093258;28;19920;-85
2023/09/11 07:12:58;;;;;;;;;;;;;;;35.69;31.67;98183.47;5092826;28;20287;-86
2023/09/11 07:15:24;;;;;;;;;;;;;;;35.72;30.74;98185.31;5077741;28;20395;-86
2023/09/11 07:17:53;;;;;;;;;;;;;;;35.80;30.83;98184.31;5099701;28;19962;-86
2023/09/11 07:20:19;;;;;;;;;;;;;;;35.90;31.58;98182.81;5095350;28;19924;-86
2023/09/11 07:22:45;;;;;;;;;;;;;;;36.15;31.16;98180.34;5093082;28;20033;-86
2023/09/11 07:25:14;;;;;;;;;;;;;;;36.20;31.11;98186.06;5091900;28;19923;-85
2023/09/11 07:27:40;;;;;;;;;;;;;;;36.35;29.90;98180.13;5095458;28;20333;-86
2023/09/11 07:30:09;;;;;;;;;;;;;;;36.64;29.61;98176.84;5093748;28;19920;-86
2023/09/11 07:32:35;;;;;;;;;;;;;;;36.83;29.96;98171.38;5093020;28;19916;-85
2023/09/11 07:35:01;;;;;;;;;;;;;;;36.58;30.54;98176.03;5096112;28;20011;-86
2023/09/11 07:37:27;;;;;;;;;;;;;;;36.56;30.48;98173.69;5097266;28;19964;-85
2023/09/11 07:39:53;;;;;;;;;;;;;;;36.67;30.96;98165.13;5095115;28;19916;-86
2023/09/11 07:42:19;;;;;;;;;;;;;;;37.26;30.22;98166.94;5095317;28;19924;-85
2023/09/11 07:44:45;;;;;;;;;;;;;;;36.88;30.46;98156.28;5109214;28;19920;-85
2023/09/11 07:47:12;;;;;;;;;;;;;;;36.88;30.79;98167.72;5096191;28;19916;-85
2023/09/11 07:49:38;;;;;;;;;;;;;;;36.38;29.97;98165.59;5116192;28;19915;-85
2023/09/11 07:52:04;;;;;;;;;;;;;;;36.59;30.52;98163.31;5116100;28;19919;-85
2023/09/11 07:54:31;;;;;;;;;;;;;;;36.86;30.10;98167.47;5092383;28;19923;-85
2023/09/11 07:56:57;;;;;;;;;;;;;;;37.14;28.31;98166.19;5075130;28;19952;-86
2023/09/11 07:59:23;;;;;;;;;;;;;;;37.37;28.61;98169.81;5085648;28;19958;-86
2023/09/11 08:01:49;;;;;;;;;;;;;;;37.64;28.13;98166.13;5091826;28;20438;-86
2023/09/11 08:04:15;;;;;;;;;;;;;;;37.65;28.12;98169.75;5093030;28;19920;-86
2023/09/11 08:06:42;;;;;;;;;;;;;;;37.79;27.49;98169.44;5075302;28;19942;-85
2023/09/11 08:09:08;;;;;;;;;;;;;;;37.88;27.53;98169.16;5094849;28;19927;-86
2023/09/11 08:11:39;;;;;;;;;;;;;;;38.21;28.21;98173.22;5076354;28;20367;-86
2023/09/11 08:14:08;;;;;;;;;;;;;;;38.49;27.32;98163.13;5094045;28;20391;-86
2023/09/11 08:16:34;;;;;;;;;;;;;;;38.46;26.94;98163.44;5087559;28;19924;-86
2023/09/11 08:19:00;;;;;;;;;;;;;;;37.59;26.56;98171.84;5095149;28;19927;-86
2023/09/11 08:21:26;;;;;;;;;;;;;;;37.69;26.42;98168.19;5103763;28;19931;-86
2023/09/11 08:23:52;;;;;;;;;;;;;;;37.54;26.82;98158.31;5102782;28;20003;-86
2023/09/11 08:26:19;;;;;;;;;;;;;;;37.49;27.75;98153.38;5088902;28;19927;-88
2023/09/11 08:28:45;;;;;;;;;;;;;;;37.71;27.71;98151.25;5088538;28;19928;-87
2023/09/11 08:31:11;;;;;;;;;;;;;;;38.43;25.75;98162.41;5067310;28;19924;-87
2023/09/11 08:33:37;;;;;;;;;;;;;;;38.75;26.17;98159.06;5097138;28;20287;-88
2023/09/11 08:36:03;;;;;;;;;;;;;;;38.72;25.44;98158.03;5091849;28;19926;-87
2023/09/11 08:38:29;;;;;;;;;;;;;;;38.83;25.28;98157.19;5087195;28;19924;-88
2023/09/11 08:40:55;;;;;;;;;;;;;;;39.22;25.82;98163.38;5094430;28;19920;-88
2023/09/11 08:43:24;;;;;;;;;;;;;;;39.49;24.87;98161.56;5093836;28;19932;-87
2023/09/11 08:45:50;;;;;;;;;;;;;;;39.54;25.62;98157.84;5091524;28;19920;-88
2023/09/11 08:48:17;;;;;;;;;;;;;;;39.54;24.86;98160.72;5075102;28;19920;-88
2023/09/11 08:50:54;;;;;;;;;;;;;;;39.46;25.53;98162.63;5093578;28;19924;-87
2023/09/11 08:53:22;;;;;;;;;;;;;;;39.47;25.40;98161.31;5092099;28;19920;-88
2023/09/11 08:55:49;;;;;;;;;;;;;;;39.56;25.37;98161.72;5076270;28;19942;-88
2023/09/11 08:58:17;;;;;;;;;;;;;;;39.73;24.89;98165.22;5092289;28;20046;-87
2023/09/11 09:00:43;;;;;;;;;;;;;;;39.83;24.94;98160.66;5089203;28;19974;-88
2023/09/11 09:03:09;;;;;;;;;;;;;;;39.87;24.50;98161.13;5091127;28;20007;-88
2023/09/11 09:05:36;;;;;;;;;;;;;;;39.92;24.65;98156.59;5091766;28;19959;-88
2023/09/11 09:08:04;;;;;;;;;;;;;;;40.00;25.32;98164.06;5091878;28;20485;-88
2023/09/11 09:10:30;;;;;;;;;;;;;;;40.03;24.29;98161.50;5092123;28;19927;-87
2023/09/11 09:12:56;;;;;;;;;;;;;;;40.10;23.93;98158.00;5091959;28;19924;-88
2023/09/11 09:15:23;;;;;;;;;;;;;;;40.12;24.61;98153.22;5091729;28;20023;-88
2023/09/11 09:17:49;;;;;;;;;;;;;;;39.94;25.05;98157.63;5092433;28;20034;-87
2023/09/11 09:20:17;;;;;;;;;;;;;;;39.92;25.65;98154.53;5090288;28;19943;-88
2023/09/11 09:22:56;;;;;;;;;;;;;;;40.29;24.93;98153.00;5091515;28;19927;-86
2023/09/11 09:25:26;;;;;;;;;;;;;;;40.66;24.47;98152.97;5091037;28;19974;-87
2023/09/11 09:27:53;;;;;;;;;;;;;;;40.74;23.50;98142.41;5091144;28;20015;-87
2023/09/11 09:30:22;;;;;;;;;;;;;;;40.80;21.86;98137.31;5090263;28;19932;-88
2023/09/11 09:32:49;;;;;;;;;;;;;;;40.81;21.64;98141.75;5086993;28;19923;-88
2023/09/11 09:35:16;;;;;;;;;;;;;;;40.83;22.32;98141.19;5088452;28;19920;-86
2023/09/11 09:37:52;;;;;;;;;;;;;;;40.58;23.14;98135.59;5090158;28;19923;-88
2023/09/11 09:40:31;;;;;;;;;;;;;;;40.58;21.65;98134.81;5091435;28;19920;-88
2023/09/11 09:43:03;;;;;;;;;;;;;;;40.55;23.49;98133.78;5091255;28;19920;-88
2023/09/11 09:45:29;;;;;;;;;;;;;;;40.70;22.46;98130.44;5090464;28;20314;-87
2023/09/11 09:48:09;;;;;;;;;;;;;;;40.70;23.14;98127.53;5089489;28;19934;-87
2023/09/11 09:50:49;;;;;;;;;;;;;;;40.71;22.73;98129.09;5093103;28;20010;-88
2023/09/11 09:53:22;;;;;;;;;;;;;;;40.85;22.06;98130.72;5091809;28;19927;-89
2023/09/11 09:55:48;;;;;;;;;;;;;;;40.56;22.08;98123.06;5088608;28;20352;-88
2023/09/11 09:58:14;;;;;;;;;;;;;;;40.81;22.91;98123.69;5091055;28;20289;-87
2023/09/11 10:00:41;;;;;;;;;;;;;;;40.86;22.80;98123.63;5088267;28;19947;-88
2023/09/11 10:03:08;;;;;;;;;;;;;;;40.58;21.84;98121.19;5090328;28;19978;-86
2023/09/11 10:05:34;;;;;;;;;;;;;;;40.61;22.62;98113.56;5095096;28;19990;-87
2023/09/11 10:08:00;;;;;;;;;;;;;;;40.96;21.63;98121.88;5090753;28;21446;-89
2023/09/11 10:10:26;;;;;;;;;;;;;;;41.06;21.90;98117.25;5088143;28;20317;-87
2023/09/11 10:12:58;;;;;;;;;;;;;;;40.86;22.51;98115.00;5091412;28;20398;-88
2023/09/11 10:15:24;;;;;;;;;;;;;;;41.07;22.52;98109.38;5093842;28;19939;-89
2023/09/11 10:17:53;;;;;;;;;;;;;;;41.05;24.12;98118.59;5092913;28;20272;-89
2023/09/11 10:20:19;;;;;;;;;;;;;;;40.64;22.88;98112.44;5094688;28;19969;-86
2023/09/11 10:22:45;;;;;;;;;;;;;;;41.09;22.29;98110.38;5093885;28;19935;-88
2023/09/11 10:25:11;;;;;;;;;;;;;;;40.84;23.24;98113.97;5094340;28;20074;-88
2023/09/11 10:27:38;;;;;;;;;;;;;;;40.74;22.10;98109.94;5095267;28;19920;-88
2023/09/11 10:30:06;;;;;;;;;;;;;;;40.50;23.44;98110.84;5093540;28;19920;-87
2023/09/11 10:32:36;;;;;;;;;;;;;;;40.39;22.41;98108.13;5096217;28;19920;-87
2023/09/11 10:35:03;;;;;;;;;;;;;;;40.95;22.05;98105.94;5096542;28;20371;-86
2023/09/11 10:37:29;;;;;;;;;;;;;;;40.08;21.73;98118.25;5093687;28;19928;-87
2023/09/11 10:39:57;;;;;;;;;;;;;;;40.68;22.93;98101.41;5093737;28;19920;-87
2023/09/11 10:42:23;;;;;;;;;;;;;;;40.87;22.38;98105.00;5098543;28;19974;-87
2023/09/11 10:44:52;;;;;;;;;;;;;;;40.96;22.11;98104.59;5094822;28;19932;-87
2023/09/11 10:47:19;;;;;;;;;;;;;;;41.25;21.99;98097.00;5093336;28;19928;-87
2023/09/11 10:49:48;;;;;;;;;;;;;;;41.45;22.23;98095.59;5092997;28;19927;-87
2023/09/11 10:52:15;;;;;;;;;;;;;;;41.78;21.05;98095.69;5095851;28;19920;-85
2023/09/11 10:54:41;;;;;;;;;;;;;;;41.32;22.16;98093.47;5094269;28;19969;-87
2023/09/11 10:57:07;;;;;;;;;;;;;;;41.20;22.27;98089.22;5093513;28;20367;-88
2023/09/11 10:59:34;;;;;;;;;;;;;;;41.55;21.21;98088.03;5092248;28;19935;-88
2023/09/11 11:02:01;;;;;;;;;;;;;;;41.33;22.51;98090.03;5093735;28;19924;-89
2023/09/11 11:04:30;;;;;;;;;;;;;;;40.73;21.87;98094.75;5084981;28;19920;-87
2023/09/11 11:06:57;;;;;;;;;;;;;;;41.27;22.36;98086.50;5089070;28;19924;-89
2023/09/11 11:09:23;;;;;;;;;;;;;;;41.39;22.94;98080.50;5094594;28;20296;-89
2023/09/11 11:11:49;;;;;;;;;;;;;;;41.62;22.16;98085.25;5094282;28;19931;-88
2023/09/11 11:14:22;;;;;;;;;;;;;;;41.75;21.52;98090.28;5087898;28;19924;-89
2023/09/11 11:16:59;;;;;;;;;;;;;;;41.77;21.38;98087.59;5092484;28;19927;-89
2023/09/11 11:19:36;;;;;;;;;;;;;;;41.72;21.93;98092.16;5092841;28;20444;-89
2023/09/11 11:22:03;;;;;;;;;;;;;;;41.41;21.08;98083.59;5087569;28;20308;-90
2023/09/11 11:24:31;;;;;;;;;;;;;;;41.24;21.41;98095.44;5091904;28;20049;-88
2023/09/11 11:26:57;;;;;;;;;;;;;;;41.90;22.07;98087.56;5093302;28;20391;-88
2023/09/11 11:29:24;;;;;;;;;;;;;;;42.37;21.64;98090.47;5090373;28;19920;-88
2023/09/11 11:31:53;;;;;;;;;;;;;;;42.48;20.94;98090.97;5091863;28;19987;-88
2023/09/11 11:34:22;;;;;;;;;;;;;;;42.55;21.11;98078.75;5094052;28;19924;-89
2023/09/11 11:36:49;;;;;;;;;;;;;;;42.68;21.19;98080.78;5090651;28;19923;-90
2023/09/11 11:39:16;;;;;;;;;;;;;;;42.39;20.97;98082.78;5092510;28;19920;-90
2023/09/11 11:41:42;;;;;;;;;;;;;;;41.62;21.11;98079.50;5092698;28;19966;-93
2023/09/11 11:44:08;;;;;;;;;;;;;;;41.67;20.65;98077.81;5094373;28;20035;-92
2023/09/11 11:46:35;;;;;;;;;;;;;;;41.64;20.47;98076.06;5092128;28;19977;-91
2023/09/11 11:49:01;;;;;;;;;;;;;;;41.71;21.23;98073.28;5074376;28;19920;-91
2023/09/11 11:51:29;;;;;;;;;;;;;;;41.42;21.52;98077.28;5074351;28;19951;-89
2023/09/11 11:53:56;;;;;;;;;;;;;;;41.31;22.23;98066.75;5089271;28;19920;-90
2023/09/11 11:56:22;;;;;;;;;;;;;;;41.59;22.44;98071.94;5090395;28;20470;-90
2023/09/11 11:58:49;;;;;;;;;;;;;;;41.90;21.00;98073.94;5092235;28;20011;-88
2023/09/11 12:01:16;;;;;;;;;;;;;;;41.73;20.93;98070.63;5090135;28;19962;-89
2023/09/11 12:03:46;;;;;;;;;;;;;;;40.54;21.83;98063.13;5092707;28;19989;-89
2023/09/11 12:06:12;;;;;;;;;;;;;;;40.89;21.08;98062.03;5086844;28;19926;-90
2023/09/11 12:08:39;;;;;;;;;;;;;;;40.58;23.11;98057.06;5089127;28;20027;-88
2023/09/11 12:11:08;;;;;;;;;;;;;;;40.54;22.00;98056.63;5070439;28;19927;-87
2023/09/11 12:13:34;;;;;;;;;;;;;;;40.53;21.80;98055.06;5093444;28;19935;-89
2023/09/11 12:16:01;;;;;;;;;;;;;;;41.21;22.00;98053.31;5090059;28;20014;-90
2023/09/11 12:18:28;;;;;;;;;;;;;;;41.59;22.00;98045.25;5093351;28;20384;-89
2023/09/11 12:20:56;;;;;;;;;;;;;;;40.98;22.08;98046.44;5091964;28;20003;-89
2023/09/11 12:23:22;;;;;;;;;;;;;;;41.13;21.46;98040.88;5093863;28;19920;-88
2023/09/11 12:25:48;;;;;;;;;;;;;;;41.41;22.20;98049.78;5074509;28;19924;-90
2023/09/11 12:28:14;;;;;;;;;;;;;;;41.77;21.65;98050.88;5091121;28;20389;-90
2023/09/11 12:30:41;;;;;;;;;;;;;;;42.23;21.55;98051.44;5087962;28;19928;-88
2023/09/11 12:33:08;;;;;;;;;;;;;;;42.49;21.00;98046.34;5092956;28;20287;-89
2023/09/11 12:35:34;;;;;;;;;;;;;;;42.03;21.08;98047.91;5092227;28;19920;-88
2023/09/11 12:38:00;;;;;;;;;;;;;;;41.62;21.92;98044.09;5070305;28;19920;-89
2023/09/11 12:40:26;;;;;;;;;;;;;;;41.60;22.27;98047.56;5092372;28;19924;-89
2023/09/11 12:42:53;;;;;;;;;;;;;;;41.55;21.83;98048.44;5071076;28;20296;-90
2023/09/11 12:45:19;;;;;;;;;;;;;;;41.99;20.97;98049.59;5082122;28;19967;-88